sensor_id;sensor_type;location;lat;lon;timestamp;temperature;humidity
18670;DHT22;9464;44.918;9.670;2023-02-22T00:02:05;12.60;1.00
18670;DHT22;9464;44.918;9.670;2023-02-22T00:04:51;12.60;1.00
18670;DHT22;9464;44.918;9.670;2023-02-22T00:07:20;12.50;1.00
18670;DHT22;9464;44.918;9.670;2023-02-22T00:09:49;12.50;1.00
18670;DHT22;9464;44.918;9.670;2023-02-22T00:12:17;12.50;1.00
18670;DHT22;9464;44.918;9.670;2023-02-22T00:14:46;12.50;1.00
18670;DHT22;9464;44.918;9.670;2023-02-22T00:17:16;12.50;1.00
18670;DHT22;9464;44.918;9.670;2023-02-22T00:19:47;12.50;1.00
18670;DHT22;9464;44.918;9.670;2023-02-22T00:22:16;12.50;1.00
18670;DHT22;9464;44.918;9.670;2023-02-22T00:24:46;12.50;1.00
18670;DHT22;9464;44.918;9.670;2023-02-22T00:27:16;12.50;1.00
18670;DHT22;9464;44.918;9.670;2023-02-22T00:29:44;12.40;1.00
18670;DHT22;9464;44.918;9.670;2023-02-22T00:32:13;12.40;1.00
18670;DHT22;9464;44.918;9.670;2023-02-22T00:34:43;12.40;1.00
18670;DHT22;9464;44.918;9.670;2023-02-22T00:37:11;12.40;1.00
18670;DHT22;9464;44.918;9.670;2023-02-22T00:39:40;12.40;1.00
18670;DHT22;9464;44.918;9.670;2023-02-22T00:42:08;12.40;1.00
18670;DHT22;9464;44.918;9.670;2023-02-22T00:44:36;12.40;1.00
18670;DHT22;9464;44.918;9.670;2023-02-22T00:47:05;12.40;1.00
18670;DHT22;9464;44.918;9.670;2023-02-22T00:49:33;12.30;1.00
18670;DHT22;9464;44.918;9.670;2023-02-22T00:52:03;12.30;1.00
18670;DHT22;9464;44.918;9.670;2023-02-22T00:54:32;12.30;1.00
18670;DHT22;9464;44.918;9.670;2023-02-22T00:57:00;12.30;1.00
18670;DHT22;9464;44.918;9.670;2023-02-22T00:59:29;12.30;1.00
18670;DHT22;9464;44.918;9.670;2023-02-22T01:01:58;12.30;1.00
18670;DHT22;9464;44.918;9.670;2023-02-22T01:04:26;12.30;1.00
18670;DHT22;9464;44.918;9.670;2023-02-22T01:06:55;12.30;1.00
18670;DHT22;9464;44.918;9.670;2023-02-22T01:09:26;12.30;1.00
18670;DHT22;9464;44.918;9.670;2023-02-22T01:11:54;12.30;1.00
18670;DHT22;9464;44.918;9.670;2023-02-22T01:14:24;12.30;1.00
18670;DHT22;9464;44.918;9.670;2023-02-22T01:16:54;12.20;1.00
18670;DHT22;9464;44.918;9.670;2023-02-22T01:19:23;12.20;1.00
18670;DHT22;9464;44.918;9.670;2023-02-22T01:21:51;12.10;1.00
18670;DHT22;9464;44.918;9.670;2023-02-22T01:24:20;12.10;1.00
18670;DHT22;9464;44.918;9.670;2023-02-22T01:26:51;12.10;1.00
18670;DHT22;9464;44.918;9.670;2023-02-22T01:29:19;12.10;1.00
18670;DHT22;9464;44.918;9.670;2023-02-22T01:31:52;12.10;1.00
18670;DHT22;9464;44.918;9.670;2023-02-22T01:34:22;12.10;1.00
18670;DHT22;9464;44.918;9.670;2023-02-22T01:36:51;12.10;1.00
18670;DHT22;9464;44.918;9.670;2023-02-22T01:39:19;12.10;1.00
18670;DHT22;9464;44.918;9.670;2023-02-22T01:41:47;12.10;1.00
18670;DHT22;9464;44.918;9.670;2023-02-22T01:44:20;12.10;1.00
18670;DHT22;9464;44.918;9.670;2023-02-22T01:46:49;12.10;1.00
18670;DHT22;9464;44.918;9.670;2023-02-22T01:49:17;12.10;1.00
18670;DHT22;9464;44.918;9.670;2023-02-22T01:51:47;12.10;1.00
18670;DHT22;9464;44.918;9.670;2023-02-22T01:54:22;12.10;1.00
18670;DHT22;9464;44.918;9.670;2023-02-22T01:56:56;12.10;1.00
18670;DHT22;9464;44.918;9.670;2023-02-22T01:59:31;12.00;1.00
18670;DHT22;9464;44.918;9.670;2023-02-22T02:02:00;12.00;1.00
18670;DHT22;9464;44.918;9.670;2023-02-22T02:04:31;12.00;1.00
18670;DHT22;9464;44.918;9.670;2023-02-22T02:07:03;12.00;1.00
18670;DHT22;9464;44.918;9.670;2023-02-22T02:09:36;12.00;1.00
18670;DHT22;9464;44.918;9.670;2023-02-22T02:12:08;12.00;1.00
18670;DHT22;9464;44.918;9.670;2023-02-22T02:14:40;12.00;1.00
18670;DHT22;9464;44.918;9.670;2023-02-22T02:17:11;12.00;1.00
18670;DHT22;9464;44.918;9.670;2023-02-22T02:19:46;12.00;1.00
18670;DHT22;9464;44.918;9.670;2023-02-22T02:22:37;12.00;1.00
18670;DHT22;9464;44.918;9.670;2023-02-22T02:25:24;11.90;1.00
18670;DHT22;9464;44.918;9.670;2023-02-22T02:28:21;11.90;1.00
18670;DHT22;9464;44.918;9.670;2023-02-22T02:34:20;11.90;1.00
18670;DHT22;9464;44.918;9.670;2023-02-22T02:36:57;11.90;1.00
18670;DHT22;9464;44.918;9.670;2023-02-22T02:39:29;11.90;1.00
18670;DHT22;9464;44.918;9.670;2023-02-22T02:42:02;11.90;1.00
18670;DHT22;9464;44.918;9.670;2023-02-22T02:44:36;11.90;1.00
18670;DHT22;9464;44.918;9.670;2023-02-22T02:47:11;11.90;1.00
18670;DHT22;9464;44.918;9.670;2023-02-22T02:49:47;11.90;1.00
18670;DHT22;9464;44.918;9.670;2023-02-22T02:52:20;11.90;1.00
18670;DHT22;9464;44.918;9.670;2023-02-22T02:54:50;11.90;1.00
18670;DHT22;9464;44.918;9.670;2023-02-22T02:57:19;11.90;1.00
18670;DHT22;9464;44.918;9.670;2023-02-22T02:59:47;11.90;1.00
18670;DHT22;9464;44.918;9.670;2023-02-22T03:02:32;11.90;1.00
18670;DHT22;9464;44.918;9.670;2023-02-22T03:05:22;11.90;1.00
18670;DHT22;9464;44.918;9.670;2023-02-22T03:07:56;11.90;1.00
18670;DHT22;9464;44.918;9.670;2023-02-22T03:10:40;11.90;1.00
18670;DHT22;9464;44.918;9.670;2023-02-22T03:13:15;11.90;1.00
18670;DHT22;9464;44.918;9.670;2023-02-22T03:15:51;11.80;1.00
18670;DHT22;9464;44.918;9.670;2023-02-22T03:18:26;11.80;1.00
18670;DHT22;9464;44.918;9.670;2023-02-22T03:21:04;11.80;1.00
18670;DHT22;9464;44.918;9.670;2023-02-22T03:23:38;11.80;1.00
18670;DHT22;9464;44.918;9.670;2023-02-22T03:26:12;11.80;1.00
18670;DHT22;9464;44.918;9.670;2023-02-22T03:28:43;11.80;1.00
18670;DHT22;9464;44.918;9.670;2023-02-22T03:31:16;11.80;1.00
18670;DHT22;9464;44.918;9.670;2023-02-22T03:33:49;11.80;1.00
18670;DHT22;9464;44.918;9.670;2023-02-22T03:36:25;11.80;1.00
18670;DHT22;9464;44.918;9.670;2023-02-22T03:38:57;11.80;1.00
18670;DHT22;9464;44.918;9.670;2023-02-22T03:41:27;11.80;1.00
18670;DHT22;9464;44.918;9.670;2023-02-22T03:43:59;11.80;1.00
18670;DHT22;9464;44.918;9.670;2023-02-22T03:46:31;11.80;1.00
18670;DHT22;9464;44.918;9.670;2023-02-22T03:49:03;11.80;1.00
18670;DHT22;9464;44.918;9.670;2023-02-22T03:51:36;11.80;1.00
18670;DHT22;9464;44.918;9.670;2023-02-22T03:54:05;11.80;1.00
18670;DHT22;9464;44.918;9.670;2023-02-22T03:56:41;11.80;1.00
18670;DHT22;9464;44.918;9.670;2023-02-22T03:59:13;11.80;1.00
18670;DHT22;9464;44.918;9.670;2023-02-22T04:01:41;11.70;1.00
18670;DHT22;9464;44.918;9.670;2023-02-22T04:04:10;11.80;1.00
18670;DHT22;9464;44.918;9.670;2023-02-22T04:06:39;11.80;1.00
18670;DHT22;9464;44.918;9.670;2023-02-22T04:09:08;11.80;1.00
18670;DHT22;9464;44.918;9.670;2023-02-22T04:11:36;11.70;1.00
18670;DHT22;9464;44.918;9.670;2023-02-22T04:14:04;11.70;1.00
18670;DHT22;9464;44.918;9.670;2023-02-22T04:16:33;11.70;1.00
18670;DHT22;9464;44.918;9.670;2023-02-22T04:19:01;11.70;1.00
18670;DHT22;9464;44.918;9.670;2023-02-22T04:21:29;11.70;1.00
18670;DHT22;9464;44.918;9.670;2023-02-22T04:23:59;11.70;1.00
18670;DHT22;9464;44.918;9.670;2023-02-22T04:26:27;11.70;1.00
18670;DHT22;9464;44.918;9.670;2023-02-22T04:28:55;11.70;1.00
18670;DHT22;9464;44.918;9.670;2023-02-22T04:31:23;11.70;1.00
18670;DHT22;9464;44.918;9.670;2023-02-22T04:33:52;11.70;1.00
18670;DHT22;9464;44.918;9.670;2023-02-22T04:36:20;11.70;1.00
18670;DHT22;9464;44.918;9.670;2023-02-22T04:38:48;11.70;1.00
18670;DHT22;9464;44.918;9.670;2023-02-22T04:41:18;11.70;1.00
18670;DHT22;9464;44.918;9.670;2023-02-22T04:43:50;11.70;1.00
18670;DHT22;9464;44.918;9.670;2023-02-22T04:46:18;11.70;1.00
18670;DHT22;9464;44.918;9.670;2023-02-22T04:48:46;11.70;1.00
18670;DHT22;9464;44.918;9.670;2023-02-22T04:51:15;11.70;1.00
18670;DHT22;9464;44.918;9.670;2023-02-22T04:53:43;11.70;1.00
18670;DHT22;9464;44.918;9.670;2023-02-22T04:56:12;11.70;1.00
18670;DHT22;9464;44.918;9.670;2023-02-22T04:58:41;11.70;1.00
18670;DHT22;9464;44.918;9.670;2023-02-22T05:01:10;11.60;1.00
18670;DHT22;9464;44.918;9.670;2023-02-22T05:03:38;11.60;1.00
18670;DHT22;9464;44.918;9.670;2023-02-22T05:06:07;11.70;1.00
18670;DHT22;9464;44.918;9.670;2023-02-22T05:08:35;11.60;1.00
18670;DHT22;9464;44.918;9.670;2023-02-22T05:11:03;11.60;1.00
18670;DHT22;9464;44.918;9.670;2023-02-22T05:13:32;11.60;1.00
18670;DHT22;9464;44.918;9.670;2023-02-22T05:16:01;11.70;1.00
18670;DHT22;9464;44.918;9.670;2023-02-22T05:18:30;11.70;1.00
18670;DHT22;9464;44.918;9.670;2023-02-22T05:20:58;11.60;1.00
18670;DHT22;9464;44.918;9.670;2023-02-22T05:23:27;11.70;1.00
18670;DHT22;9464;44.918;9.670;2023-02-22T05:25:55;11.70;1.00
18670;DHT22;9464;44.918;9.670;2023-02-22T05:28:24;11.70;1.00
18670;DHT22;9464;44.918;9.670;2023-02-22T05:30:53;11.70;1.00
18670;DHT22;9464;44.918;9.670;2023-02-22T05:33:24;11.70;1.00
18670;DHT22;9464;44.918;9.670;2023-02-22T05:35:52;11.70;1.00
18670;DHT22;9464;44.918;9.670;2023-02-22T05:38:21;11.70;1.00
18670;DHT22;9464;44.918;9.670;2023-02-22T05:40:50;11.70;1.00
18670;DHT22;9464;44.918;9.670;2023-02-22T05:43:18;11.60;1.00
18670;DHT22;9464;44.918;9.670;2023-02-22T05:45:46;11.60;1.00
18670;DHT22;9464;44.918;9.670;2023-02-22T05:48:14;11.60;1.00
18670;DHT22;9464;44.918;9.670;2023-02-22T05:50:44;11.60;1.00
18670;DHT22;9464;44.918;9.670;2023-02-22T05:53:13;11.60;1.00
18670;DHT22;9464;44.918;9.670;2023-02-22T05:55:41;11.60;1.00
18670;DHT22;9464;44.918;9.670;2023-02-22T05:58:12;11.60;1.00
18670;DHT22;9464;44.918;9.670;2023-02-22T06:00:41;11.60;1.00
18670;DHT22;9464;44.918;9.670;2023-02-22T06:03:10;11.60;1.00
18670;DHT22;9464;44.918;9.670;2023-02-22T06:05:39;11.60;1.00
18670;DHT22;9464;44.918;9.670;2023-02-22T06:08:10;11.60;1.00
18670;DHT22;9464;44.918;9.670;2023-02-22T06:10:38;11.60;1.00
18670;DHT22;9464;44.918;9.670;2023-02-22T06:13:06;11.60;1.00
18670;DHT22;9464;44.918;9.670;2023-02-22T06:15:35;11.60;1.00
18670;DHT22;9464;44.918;9.670;2023-02-22T06:18:03;11.60;1.00
18670;DHT22;9464;44.918;9.670;2023-02-22T06:20:31;11.60;1.00
18670;DHT22;9464;44.918;9.670;2023-02-22T06:23:01;11.60;1.00
18670;DHT22;9464;44.918;9.670;2023-02-22T06:25:31;11.60;1.00
18670;DHT22;9464;44.918;9.670;2023-02-22T06:28:00;11.60;1.00
18670;DHT22;9464;44.918;9.670;2023-02-22T06:30:29;11.60;1.00
18670;DHT22;9464;44.918;9.670;2023-02-22T06:32:57;11.60;1.00
18670;DHT22;9464;44.918;9.670;2023-02-22T06:35:26;11.60;1.00
18670;DHT22;9464;44.918;9.670;2023-02-22T06:37:54;11.60;1.00
18670;DHT22;9464;44.918;9.670;2023-02-22T06:40:22;11.60;1.00
18670;DHT22;9464;44.918;9.670;2023-02-22T06:42:57;11.60;1.00
18670;DHT22;9464;44.918;9.670;2023-02-22T06:45:26;11.60;1.00
18670;DHT22;9464;44.918;9.670;2023-02-22T06:47:54;11.60;1.00
18670;DHT22;9464;44.918;9.670;2023-02-22T06:50:24;11.60;1.00
18670;DHT22;9464;44.918;9.670;2023-02-22T06:52:54;11.60;1.00
18670;DHT22;9464;44.918;9.670;2023-02-22T06:55:24;11.60;1.00
18670;DHT22;9464;44.918;9.670;2023-02-22T06:57:53;11.60;1.00
18670;DHT22;9464;44.918;9.670;2023-02-22T07:00:24;11.60;1.00
18670;DHT22;9464;44.918;9.670;2023-02-22T07:02:53;11.60;1.00
18670;DHT22;9464;44.918;9.670;2023-02-22T07:05:23;11.60;1.00
18670;DHT22;9464;44.918;9.670;2023-02-22T07:07:53;11.60;1.00
18670;DHT22;9464;44.918;9.670;2023-02-22T07:10:24;11.60;1.00
18670;DHT22;9464;44.918;9.670;2023-02-22T07:12:53;11.70;1.00
18670;DHT22;9464;44.918;9.670;2023-02-22T07:15:26;11.70;1.00
18670;DHT22;9464;44.918;9.670;2023-02-22T07:17:54;11.70;1.00
18670;DHT22;9464;44.918;9.670;2023-02-22T07:20:24;11.70;1.00
18670;DHT22;9464;44.918;9.670;2023-02-22T07:22:54;11.70;1.00
18670;DHT22;9464;44.918;9.670;2023-02-22T07:25:23;11.70;1.00
18670;DHT22;9464;44.918;9.670;2023-02-22T07:27:51;11.70;1.00
18670;DHT22;9464;44.918;9.670;2023-02-22T07:30:23;11.70;1.00
18670;DHT22;9464;44.918;9.670;2023-02-22T07:32:53;11.70;1.00
18670;DHT22;9464;44.918;9.670;2023-02-22T07:35:23;11.70;1.00
18670;DHT22;9464;44.918;9.670;2023-02-22T07:37:52;11.70;1.00
18670;DHT22;9464;44.918;9.670;2023-02-22T07:40:22;11.70;1.00
18670;DHT22;9464;44.918;9.670;2023-02-22T07:42:56;11.70;1.00
18670;DHT22;9464;44.918;9.670;2023-02-22T07:45:28;11.70;1.00
18670;DHT22;9464;44.918;9.670;2023-02-22T07:47:56;11.80;1.00
18670;DHT22;9464;44.918;9.670;2023-02-22T07:50:27;11.80;1.00
18670;DHT22;9464;44.918;9.670;2023-02-22T07:52:58;11.80;1.00
18670;DHT22;9464;44.918;9.670;2023-02-22T07:55:28;11.80;1.00
18670;DHT22;9464;44.918;9.670;2023-02-22T07:57:58;11.80;1.00
18670;DHT22;9464;44.918;9.670;2023-02-22T08:00:30;11.80;1.00
18670;DHT22;9464;44.918;9.670;2023-02-22T08:02:59;11.80;1.00
18670;DHT22;9464;44.918;9.670;2023-02-22T08:05:29;11.80;1.00
18670;DHT22;9464;44.918;9.670;2023-02-22T08:07:57;11.90;1.00
18670;DHT22;9464;44.918;9.670;2023-02-22T08:10:26;11.90;1.00
18670;DHT22;9464;44.918;9.670;2023-02-22T08:12:55;11.90;1.00
18670;DHT22;9464;44.918;9.670;2023-02-22T08:15:25;11.90;1.00
18670;DHT22;9464;44.918;9.670;2023-02-22T08:17:57;11.90;1.00
18670;DHT22;9464;44.918;9.670;2023-02-22T08:20:26;11.90;1.00
18670;DHT22;9464;44.918;9.670;2023-02-22T08:22:55;11.90;1.00
18670;DHT22;9464;44.918;9.670;2023-02-22T08:25:26;12.00;1.00
18670;DHT22;9464;44.918;9.670;2023-02-22T08:27:57;12.00;1.00
18670;DHT22;9464;44.918;9.670;2023-02-22T08:30:28;12.00;1.00
18670;DHT22;9464;44.918;9.670;2023-02-22T08:32:58;12.00;1.00
18670;DHT22;9464;44.918;9.670;2023-02-22T08:35:29;12.00;1.00
18670;DHT22;9464;44.918;9.670;2023-02-22T08:37:59;12.00;1.00
18670;DHT22;9464;44.918;9.670;2023-02-22T08:40:29;12.10;1.00
18670;DHT22;9464;44.918;9.670;2023-02-22T08:42:58;12.10;1.00
18670;DHT22;9464;44.918;9.670;2023-02-22T08:45:27;12.10;1.00
18670;DHT22;9464;44.918;9.670;2023-02-22T08:47:58;12.10;1.00
18670;DHT22;9464;44.918;9.670;2023-02-22T08:50:27;12.20;1.00
18670;DHT22;9464;44.918;9.670;2023-02-22T08:52:58;12.20;1.00
18670;DHT22;9464;44.918;9.670;2023-02-22T08:55:28;12.20;1.00
18670;DHT22;9464;44.918;9.670;2023-02-22T08:57:58;12.20;1.00
18670;DHT22;9464;44.918;9.670;2023-02-22T09:00:29;12.30;1.00
18670;DHT22;9464;44.918;9.670;2023-02-22T09:03:02;12.30;1.00
18670;DHT22;9464;44.918;9.670;2023-02-22T09:05:30;12.30;1.00
18670;DHT22;9464;44.918;9.670;2023-02-22T09:07:59;12.30;1.00
18670;DHT22;9464;44.918;9.670;2023-02-22T09:10:29;12.30;1.00
18670;DHT22;9464;44.918;9.670;2023-02-22T09:12:59;12.30;1.00
18670;DHT22;9464;44.918;9.670;2023-02-22T09:15:30;12.30;1.00
18670;DHT22;9464;44.918;9.670;2023-02-22T09:18:00;12.30;1.00
18670;DHT22;9464;44.918;9.670;2023-02-22T09:20:30;12.30;1.00
18670;DHT22;9464;44.918;9.670;2023-02-22T09:22:58;12.30;1.00
18670;DHT22;9464;44.918;9.670;2023-02-22T09:25:28;12.30;1.00
18670;DHT22;9464;44.918;9.670;2023-02-22T09:27:57;12.40;1.00
18670;DHT22;9464;44.918;9.670;2023-02-22T09:30:26;12.40;1.00
18670;DHT22;9464;44.918;9.670;2023-02-22T09:33:00;12.40;1.00
18670;DHT22;9464;44.918;9.670;2023-02-22T09:35:29;12.40;1.00
18670;DHT22;9464;44.918;9.670;2023-02-22T09:38:03;12.40;1.00
18670;DHT22;9464;44.918;9.670;2023-02-22T09:40:33;12.40;1.00
18670;DHT22;9464;44.918;9.670;2023-02-22T09:43:17;12.40;1.00
18670;DHT22;9464;44.918;9.670;2023-02-22T09:45:58;12.40;1.00
18670;DHT22;9464;44.918;9.670;2023-02-22T09:48:35;12.40;1.00
18670;DHT22;9464;44.918;9.670;2023-02-22T09:51:13;12.40;1.00
18670;DHT22;9464;44.918;9.670;2023-02-22T09:53:45;12.40;1.00
18670;DHT22;9464;44.918;9.670;2023-02-22T09:56:17;12.40;1.00
18670;DHT22;9464;44.918;9.670;2023-02-22T09:58:48;12.40;1.00
18670;DHT22;9464;44.918;9.670;2023-02-22T10:01:23;12.40;1.00
18670;DHT22;9464;44.918;9.670;2023-02-22T10:04:00;12.40;1.00
18670;DHT22;9464;44.918;9.670;2023-02-22T10:06:31;12.40;1.00
18670;DHT22;9464;44.918;9.670;2023-02-22T10:09:02;12.40;1.00
18670;DHT22;9464;44.918;9.670;2023-02-22T10:11:47;12.30;1.00
18670;DHT22;9464;44.918;9.670;2023-02-22T10:14:34;12.30;1.00
18670;DHT22;9464;44.918;9.670;2023-02-22T10:17:16;12.30;1.00
18670;DHT22;9464;44.918;9.670;2023-02-22T10:19:54;12.30;1.00
18670;DHT22;9464;44.918;9.670;2023-02-22T10:22:35;12.30;1.00
18670;DHT22;9464;44.918;9.670;2023-02-22T10:25:11;12.30;1.00
18670;DHT22;9464;44.918;9.670;2023-02-22T10:27:43;12.30;1.00
18670;DHT22;9464;44.918;9.670;2023-02-22T10:30:18;12.30;1.00
18670;DHT22;9464;44.918;9.670;2023-02-22T10:32:57;12.30;1.00
18670;DHT22;9464;44.918;9.670;2023-02-22T10:35:32;12.30;1.00
18670;DHT22;9464;44.918;9.670;2023-02-22T10:38:10;12.30;1.00
18670;DHT22;9464;44.918;9.670;2023-02-22T10:40:42;12.30;1.00
18670;DHT22;9464;44.918;9.670;2023-02-22T10:43:12;12.30;1.00
18670;DHT22;9464;44.918;9.670;2023-02-22T10:45:40;12.30;1.00
18670;DHT22;9464;44.918;9.670;2023-02-22T10:48:13;12.30;1.00
18670;DHT22;9464;44.918;9.670;2023-02-22T10:50:46;12.30;1.00
18670;DHT22;9464;44.918;9.670;2023-02-22T10:53:16;12.30;1.00
18670;DHT22;9464;44.918;9.670;2023-02-22T10:56:06;12.30;1.00
18670;DHT22;9464;44.918;9.670;2023-02-22T10:58:43;12.40;1.00
18670;DHT22;9464;44.918;9.670;2023-02-22T11:01:22;12.40;1.00
18670;DHT22;9464;44.918;9.670;2023-02-22T11:03:57;12.40;1.00
18670;DHT22;9464;44.918;9.670;2023-02-22T11:06:27;12.40;1.00
18670;DHT22;9464;44.918;9.670;2023-02-22T11:09:08;12.40;1.00
18670;DHT22;9464;44.918;9.670;2023-02-22T11:11:38;12.40;1.00
18670;DHT22;9464;44.918;9.670;2023-02-22T11:14:09;12.40;1.00
18670;DHT22;9464;44.918;9.670;2023-02-22T11:16:40;12.40;1.00
18670;DHT22;9464;44.918;9.670;2023-02-22T11:19:17;12.40;1.00
18670;DHT22;9464;44.918;9.670;2023-02-22T11:21:49;12.40;1.00
18670;DHT22;9464;44.918;9.670;2023-02-22T11:24:20;12.40;1.00
18670;DHT22;9464;44.918;9.670;2023-02-22T11:26:53;12.40;1.00
18670;DHT22;9464;44.918;9.670;2023-02-22T11:29:25;12.40;1.00
18670;DHT22;9464;44.918;9.670;2023-02-22T11:31:55;12.30;1.00
18670;DHT22;9464;44.918;9.670;2023-02-22T11:34:32;12.30;1.00
18670;DHT22;9464;44.918;9.670;2023-02-22T11:37:29;12.30;1.00
18670;DHT22;9464;44.918;9.670;2023-02-22T11:40:10;12.40;1.00
18670;DHT22;9464;44.918;9.670;2023-02-22T11:42:39;12.40;1.00
18670;DHT22;9464;44.918;9.670;2023-02-22T11:45:11;12.40;1.00
18670;DHT22;9464;44.918;9.670;2023-02-22T11:47:51;12.40;1.00
18670;DHT22;9464;44.918;9.670;2023-02-22T11:50:28;12.50;1.00
18670;DHT22;9464;44.918;9.670;2023-02-22T11:53:22;12.50;1.00
18670;DHT22;9464;44.918;9.670;2023-02-22T11:56:00;12.60;1.00
18670;DHT22;9464;44.918;9.670;2023-02-22T11:58:40;12.60;1.00
18670;DHT22;9464;44.918;9.670;2023-02-22T12:01:18;12.70;1.00
18670;DHT22;9464;44.918;9.670;2023-02-22T12:06:59;12.80;1.00
18670;DHT22;9464;44.918;9.670;2023-02-22T12:09:36;12.80;1.00
18670;DHT22;9464;44.918;9.670;2023-02-22T12:12:14;12.80;1.00
18670;DHT22;9464;44.918;9.670;2023-02-22T12:14:51;12.80;1.00
18670;DHT22;9464;44.918;9.670;2023-02-22T12:17:31;12.80;1.00
18670;DHT22;9464;44.918;9.670;2023-02-22T12:20:04;12.90;1.00
18670;DHT22;9464;44.918;9.670;2023-02-22T12:22:43;13.00;1.00
18670;DHT22;9464;44.918;9.670;2023-02-22T12:25:20;13.00;1.00
18670;DHT22;9464;44.918;9.670;2023-02-22T12:27:53;13.00;1.00
18670;DHT22;9464;44.918;9.670;2023-02-22T12:30:25;13.00;1.00
18670;DHT22;9464;44.918;9.670;2023-02-22T12:32:58;13.00;1.00
18670;DHT22;9464;44.918;9.670;2023-02-22T12:35:28;13.00;1.00
18670;DHT22;9464;44.918;9.670;2023-02-22T12:38:05;13.00;1.00
18670;DHT22;9464;44.918;9.670;2023-02-22T12:40:45;13.00;1.00
18670;DHT22;9464;44.918;9.670;2023-02-22T12:43:24;12.90;1.00
18670;DHT22;9464;44.918;9.670;2023-02-22T12:46:01;12.90;1.00
18670;DHT22;9464;44.918;9.670;2023-02-22T12:48:41;13.00;1.00
18670;DHT22;9464;44.918;9.670;2023-02-22T12:51:20;12.90;1.00
18670;DHT22;9464;44.918;9.670;2023-02-22T12:53:56;12.90;1.00
18670;DHT22;9464;44.918;9.670;2023-02-22T12:56:31;12.90;1.00
18670;DHT22;9464;44.918;9.670;2023-02-22T12:59:07;12.90;1.00
18670;DHT22;9464;44.918;9.670;2023-02-22T13:01:41;12.90;1.00
18670;DHT22;9464;44.918;9.670;2023-02-22T13:04:11;12.90;1.00
18670;DHT22;9464;44.918;9.670;2023-02-22T13:07:08;12.90;1.00
18670;DHT22;9464;44.918;9.670;2023-02-22T13:09:55;13.00;1.00
18670;DHT22;9464;44.918;9.670;2023-02-22T13:12:33;13.00;1.00
18670;DHT22;9464;44.918;9.670;2023-02-22T13:15:09;13.00;1.00
18670;DHT22;9464;44.918;9.670;2023-02-22T13:17:47;13.00;1.00
18670;DHT22;9464;44.918;9.670;2023-02-22T13:20:22;13.10;1.00
18670;DHT22;9464;44.918;9.670;2023-02-22T13:22:56;13.10;1.00
18670;DHT22;9464;44.918;9.670;2023-02-22T13:25:32;13.10;1.00
18670;DHT22;9464;44.918;9.670;2023-02-22T13:28:18;13.10;1.00
18670;DHT22;9464;44.918;9.670;2023-02-22T13:30:56;13.10;1.00
18670;DHT22;9464;44.918;9.670;2023-02-22T13:33:41;13.10;1.00
18670;DHT22;9464;44.918;9.670;2023-02-22T13:36:29;13.10;1.00
18670;DHT22;9464;44.918;9.670;2023-02-22T13:39:23;13.00;1.00
18670;DHT22;9464;44.918;9.670;2023-02-22T13:42:17;13.00;1.00
18670;DHT22;9464;44.918;9.670;2023-02-22T13:45:08;13.10;1.00
18670;DHT22;9464;44.918;9.670;2023-02-22T13:51:01;13.20;1.00
18670;DHT22;9464;44.918;9.670;2023-02-22T13:53:39;13.10;1.00
18670;DHT22;9464;44.918;9.670;2023-02-22T13:56:09;13.10;1.00
18670;DHT22;9464;44.918;9.670;2023-02-22T13:58:49;13.10;1.00
18670;DHT22;9464;44.918;9.670;2023-02-22T14:01:41;13.20;1.00
18670;DHT22;9464;44.918;9.670;2023-02-22T14:04:39;13.20;1.00
18670;DHT22;9464;44.918;9.670;2023-02-22T14:10:46;13.20;1.00
18670;DHT22;9464;44.918;9.670;2023-02-22T14:13:16;13.20;1.00
18670;DHT22;9464;44.918;9.670;2023-02-22T14:16:16;13.10;1.00
18670;DHT22;9464;44.918;9.670;2023-02-22T14:18:49;13.10;1.00
18670;DHT22;9464;44.918;9.670;2023-02-22T14:21:27;13.10;1.00
18670;DHT22;9464;44.918;9.670;2023-02-22T14:23:56;13.10;1.00
18670;DHT22;9464;44.918;9.670;2023-02-22T14:26:34;13.10;1.00
18670;DHT22;9464;44.918;9.670;2023-02-22T14:29:14;13.00;1.00
18670;DHT22;9464;44.918;9.670;2023-02-22T14:31:59;13.00;1.00
18670;DHT22;9464;44.918;9.670;2023-02-22T14:34:45;13.00;1.00
18670;DHT22;9464;44.918;9.670;2023-02-22T14:37:17;13.00;1.00
18670;DHT22;9464;44.918;9.670;2023-02-22T14:39:47;12.90;1.00
18670;DHT22;9464;44.918;9.670;2023-02-22T14:42:22;12.90;1.00
18670;DHT22;9464;44.918;9.670;2023-02-22T14:44:57;12.90;1.00
18670;DHT22;9464;44.918;9.670;2023-02-22T14:47:29;12.90;1.00
18670;DHT22;9464;44.918;9.670;2023-02-22T14:50:03;12.90;1.00
18670;DHT22;9464;44.918;9.670;2023-02-22T14:52:35;12.90;1.00
18670;DHT22;9464;44.918;9.670;2023-02-22T14:55:13;12.90;1.00
18670;DHT22;9464;44.918;9.670;2023-02-22T14:57:58;12.90;1.00
18670;DHT22;9464;44.918;9.670;2023-02-22T15:00:37;12.90;1.00
18670;DHT22;9464;44.918;9.670;2023-02-22T15:03:17;12.90;1.00
18670;DHT22;9464;44.918;9.670;2023-02-22T15:05:47;13.00;1.00
18670;DHT22;9464;44.918;9.670;2023-02-22T15:08:17;12.90;1.00
18670;DHT22;9464;44.918;9.670;2023-02-22T15:10:54;12.90;1.00
18670;DHT22;9464;44.918;9.670;2023-02-22T15:13:24;12.90;1.00
18670;DHT22;9464;44.918;9.670;2023-02-22T15:15:56;12.90;1.00
18670;DHT22;9464;44.918;9.670;2023-02-22T15:18:31;12.90;1.00
18670;DHT22;9464;44.918;9.670;2023-02-22T15:21:05;12.80;1.00
18670;DHT22;9464;44.918;9.670;2023-02-22T15:23:42;12.70;1.00
18670;DHT22;9464;44.918;9.670;2023-02-22T15:26:22;12.70;1.00
18670;DHT22;9464;44.918;9.670;2023-02-22T15:28:53;12.70;1.00
18670;DHT22;9464;44.918;9.670;2023-02-22T15:31:25;12.70;1.00
18670;DHT22;9464;44.918;9.670;2023-02-22T15:33:54;12.70;1.00
18670;DHT22;9464;44.918;9.670;2023-02-22T15:36:27;12.70;1.00
18670;DHT22;9464;44.918;9.670;2023-02-22T15:38:56;12.70;1.00
18670;DHT22;9464;44.918;9.670;2023-02-22T15:41:28;12.70;1.00
18670;DHT22;9464;44.918;9.670;2023-02-22T15:43:58;12.80;1.00
18670;DHT22;9464;44.918;9.670;2023-02-22T15:46:39;12.80;1.00
18670;DHT22;9464;44.918;9.670;2023-02-22T15:49:19;12.80;1.00
18670;DHT22;9464;44.918;9.670;2023-02-22T15:52:02;12.80;1.00
18670;DHT22;9464;44.918;9.670;2023-02-22T15:54:41;12.80;1.00
18670;DHT22;9464;44.918;9.670;2023-02-22T15:57:13;12.70;1.00
18670;DHT22;9464;44.918;9.670;2023-02-22T15:59:46;12.60;1.00
18670;DHT22;9464;44.918;9.670;2023-02-22T16:02:32;12.60;1.00
18670;DHT22;9464;44.918;9.670;2023-02-22T16:05:04;12.60;1.00
18670;DHT22;9464;44.918;9.670;2023-02-22T16:07:37;12.70;1.00
18670;DHT22;9464;44.918;9.670;2023-02-22T16:10:24;12.70;1.00
18670;DHT22;9464;44.918;9.670;2023-02-22T16:13:07;12.70;1.00
18670;DHT22;9464;44.918;9.670;2023-02-22T16:15:53;12.70;1.00
18670;DHT22;9464;44.918;9.670;2023-02-22T16:18:32;12.70;1.00
18670;DHT22;9464;44.918;9.670;2023-02-22T16:21:04;12.70;1.00
18670;DHT22;9464;44.918;9.670;2023-02-22T16:23:44;12.70;1.00
18670;DHT22;9464;44.918;9.670;2023-02-22T16:26:19;12.70;1.00
18670;DHT22;9464;44.918;9.670;2023-02-22T16:28:49;12.70;1.00
18670;DHT22;9464;44.918;9.670;2023-02-22T16:31:23;12.70;1.00
18670;DHT22;9464;44.918;9.670;2023-02-22T16:33:52;12.70;1.00
18670;DHT22;9464;44.918;9.670;2023-02-22T16:36:23;12.70;1.00
18670;DHT22;9464;44.918;9.670;2023-02-22T16:39:06;12.70;1.00
18670;DHT22;9464;44.918;9.670;2023-02-22T16:41:34;12.70;1.00
18670;DHT22;9464;44.918;9.670;2023-02-22T16:44:03;12.70;1.00
18670;DHT22;9464;44.918;9.670;2023-02-22T16:46:33;12.60;1.00
18670;DHT22;9464;44.918;9.670;2023-02-22T16:49:04;12.60;1.00
18670;DHT22;9464;44.918;9.670;2023-02-22T16:51:39;12.60;1.00
18670;DHT22;9464;44.918;9.670;2023-02-22T16:54:11;12.60;1.00